sensor_id;sensor_type;location;lat;lon;timestamp;P1;durP1;ratioP1;P2;durP2;ratioP2
25854;SDS011;13680;49.936;11.344;2023-06-26T00:01:37;11.27;;;6.53;;
25854;SDS011;13680;49.936;11.344;2023-06-26T00:04:05;8.85;;;6.40;;
25854;SDS011;13680;49.936;11.344;2023-06-26T00:06:30;10.40;;;6.22;;
25854;SDS011;13680;49.936;11.344;2023-06-26T00:08:55;9.27;;;6.35;;
25854;SDS011;13680;49.936;11.344;2023-06-26T00:11:21;14.73;;;6.22;;
25854;SDS011;13680;49.936;11.344;2023-06-26T00:13:47;9.82;;;6.43;;
25854;SDS011;13680;49.936;11.344;2023-06-26T00:16:13;9.68;;;6.47;;
25854;SDS011;13680;49.936;11.344;2023-06-26T00:18:38;9.68;;;6.70;;
25854;SDS011;13680;49.936;11.344;2023-06-26T00:21:04;9.15;;;6.70;;
25854;SDS011;13680;49.936;11.344;2023-06-26T00:23:29;8.80;;;7.25;;
25854;SDS011;13680;49.936;11.344;2023-06-26T00:25:56;8.80;;;6.90;;
25854;SDS011;13680;49.936;11.344;2023-06-26T00:28:22;11.55;;;7.97;;
25854;SDS011;13680;49.936;11.344;2023-06-26T00:30:48;12.90;;;7.13;;
25854;SDS011;13680;49.936;11.344;2023-06-26T00:33:13;9.45;;;7.30;;
25854;SDS011;13680;49.936;11.344;2023-06-26T00:35:38;11.70;;;7.13;;
25854;SDS011;13680;49.936;11.344;2023-06-26T00:38:04;7.93;;;6.45;;
25854;SDS011;13680;49.936;11.344;2023-06-26T00:40:29;10.23;;;6.90;;
25854;SDS011;13680;49.936;11.344;2023-06-26T00:42:54;10.13;;;6.88;;
25854;SDS011;13680;49.936;11.344;2023-06-26T00:45:20;9.80;;;7.03;;
25854;SDS011;13680;49.936;11.344;2023-06-26T00:47:45;9.57;;;6.75;;
25854;SDS011;13680;49.936;11.344;2023-06-26T00:50:11;8.98;;;6.75;;
25854;SDS011;13680;49.936;11.344;2023-06-26T00:52:36;8.02;;;6.68;;
25854;SDS011;13680;49.936;11.344;2023-06-26T00:55:02;9.23;;;6.90;;
25854;SDS011;13680;49.936;11.344;2023-06-26T00:57:29;11.85;;;6.30;;
25854;SDS011;13680;49.936;11.344;2023-06-26T00:59:55;7.93;;;6.00;;
25854;SDS011;13680;49.936;11.344;2023-06-26T01:02:20;11.20;;;6.10;;
25854;SDS011;13680;49.936;11.344;2023-06-26T01:04:49;8.63;;;6.10;;
25854;SDS011;13680;49.936;11.344;2023-06-26T01:07:15;8.18;;;6.80;;
25854;SDS011;13680;49.936;11.344;2023-06-26T01:09:43;8.63;;;6.75;;
25854;SDS011;13680;49.936;11.344;2023-06-26T01:12:11;9.07;;;6.78;;
25854;SDS011;13680;49.936;11.344;2023-06-26T01:14:36;9.68;;;6.07;;
25854;SDS011;13680;49.936;11.344;2023-06-26T01:17:02;11.68;;;7.25;;
25854;SDS011;13680;49.936;11.344;2023-06-26T01:19:29;9.18;;;6.65;;
25854;SDS011;13680;49.936;11.344;2023-06-26T01:22:00;7.60;;;6.47;;
25854;SDS011;13680;49.936;11.344;2023-06-26T01:24:39;11.57;;;7.20;;
25854;SDS011;13680;49.936;11.344;2023-06-26T01:27:09;8.43;;;6.50;;
25854;SDS011;13680;49.936;11.344;2023-06-26T01:29:36;9.50;;;6.93;;
25854;SDS011;13680;49.936;11.344;2023-06-26T01:32:02;6.95;;;6.07;;
25854;SDS011;13680;49.936;11.344;2023-06-26T01:34:28;8.05;;;6.45;;
25854;SDS011;13680;49.936;11.344;2023-06-26T01:36:54;10.38;;;6.22;;
25854;SDS011;13680;49.936;11.344;2023-06-26T01:39:20;7.47;;;5.90;;
25854;SDS011;13680;49.936;11.344;2023-06-26T01:41:45;11.13;;;6.28;;
25854;SDS011;13680;49.936;11.344;2023-06-26T01:47:02;10.75;;;6.72;;
25854;SDS011;13680;49.936;11.344;2023-06-26T01:49:47;12.95;;;7.45;;
25854;SDS011;13680;49.936;11.344;2023-06-26T01:52:27;9.98;;;6.85;;
25854;SDS011;13680;49.936;11.344;2023-06-26T01:57:26;9.27;;;6.38;;
25854;SDS011;13680;49.936;11.344;2023-06-26T01:59:53;10.57;;;6.70;;
25854;SDS011;13680;49.936;11.344;2023-06-26T02:02:24;11.98;;;6.95;;
25854;SDS011;13680;49.936;11.344;2023-06-26T02:04:50;9.23;;;6.57;;
25854;SDS011;13680;49.936;11.344;2023-06-26T02:07:16;10.07;;;6.50;;
25854;SDS011;13680;49.936;11.344;2023-06-26T02:09:42;9.93;;;7.47;;
25854;SDS011;13680;49.936;11.344;2023-06-26T02:12:08;9.35;;;6.85;;
25854;SDS011;13680;49.936;11.344;2023-06-26T02:14:34;11.55;;;7.30;;
25854;SDS011;13680;49.936;11.344;2023-06-26T02:16:59;8.38;;;6.30;;
25854;SDS011;13680;49.936;11.344;2023-06-26T02:19:25;11.57;;;6.50;;
25854;SDS011;13680;49.936;11.344;2023-06-26T02:21:52;9.20;;;6.68;;
25854;SDS011;13680;49.936;11.344;2023-06-26T02:24:18;9.05;;;6.85;;
25854;SDS011;13680;49.936;11.344;2023-06-26T02:26:44;11.43;;;7.18;;
25854;SDS011;13680;49.936;11.344;2023-06-26T02:29:09;12.02;;;6.68;;
25854;SDS011;13680;49.936;11.344;2023-06-26T02:31:34;13.80;;;7.63;;
25854;SDS011;13680;49.936;11.344;2023-06-26T02:34:00;8.23;;;6.63;;
25854;SDS011;13680;49.936;11.344;2023-06-26T02:36:25;10.32;;;7.80;;
25854;SDS011;13680;49.936;11.344;2023-06-26T02:38:50;14.23;;;6.32;;
25854;SDS011;13680;49.936;11.344;2023-06-26T02:41:16;9.77;;;6.78;;
25854;SDS011;13680;49.936;11.344;2023-06-26T02:43:41;11.68;;;7.97;;
25854;SDS011;13680;49.936;11.344;2023-06-26T02:46:06;10.52;;;7.15;;
25854;SDS011;13680;49.936;11.344;2023-06-26T02:48:31;9.73;;;7.25;;
25854;SDS011;13680;49.936;11.344;2023-06-26T02:50:57;10.00;;;6.95;;
25854;SDS011;13680;49.936;11.344;2023-06-26T02:53:22;14.63;;;6.82;;
25854;SDS011;13680;49.936;11.344;2023-06-26T02:55:47;16.55;;;6.88;;
25854;SDS011;13680;49.936;11.344;2023-06-26T02:58:13;9.48;;;6.95;;
25854;SDS011;13680;49.936;11.344;2023-06-26T03:00:38;8.38;;;6.63;;
25854;SDS011;13680;49.936;11.344;2023-06-26T03:03:06;9.95;;;6.93;;
25854;SDS011;13680;49.936;11.344;2023-06-26T03:05:32;15.38;;;7.40;;
25854;SDS011;13680;49.936;11.344;2023-06-26T03:07:58;14.45;;;7.30;;
25854;SDS011;13680;49.936;11.344;2023-06-26T03:10:23;12.05;;;6.88;;
25854;SDS011;13680;49.936;11.344;2023-06-26T03:12:49;9.45;;;6.93;;
25854;SDS011;13680;49.936;11.344;2023-06-26T03:15:14;14.52;;;7.00;;
25854;SDS011;13680;49.936;11.344;2023-06-26T03:17:39;10.88;;;6.78;;
25854;SDS011;13680;49.936;11.344;2023-06-26T03:20:05;10.45;;;7.07;;
25854;SDS011;13680;49.936;11.344;2023-06-26T03:22:32;9.13;;;7.28;;
25854;SDS011;13680;49.936;11.344;2023-06-26T03:24:58;12.20;;;7.65;;
25854;SDS011;13680;49.936;11.344;2023-06-26T03:27:23;13.95;;;6.93;;
25854;SDS011;13680;49.936;11.344;2023-06-26T03:29:48;13.27;;;6.90;;
25854;SDS011;13680;49.936;11.344;2023-06-26T03:32:13;9.75;;;6.70;;
25854;SDS011;13680;49.936;11.344;2023-06-26T03:34:39;13.32;;;7.45;;
25854;SDS011;13680;49.936;11.344;2023-06-26T03:37:04;12.95;;;6.65;;
25854;SDS011;13680;49.936;11.344;2023-06-26T03:39:30;11.60;;;6.25;;
25854;SDS011;13680;49.936;11.344;2023-06-26T03:41:55;14.00;;;7.25;;
25854;SDS011;13680;49.936;11.344;2023-06-26T03:44:25;12.40;;;6.80;;
25854;SDS011;13680;49.936;11.344;2023-06-26T03:46:50;13.23;;;6.43;;
25854;SDS011;13680;49.936;11.344;2023-06-26T03:49:15;12.93;;;7.22;;
25854;SDS011;13680;49.936;11.344;2023-06-26T03:51:41;18.55;;;7.05;;
25854;SDS011;13680;49.936;11.344;2023-06-26T03:54:06;11.48;;;6.78;;
25854;SDS011;13680;49.936;11.344;2023-06-26T03:56:31;12.32;;;6.30;;
25854;SDS011;13680;49.936;11.344;2023-06-26T03:58:57;17.17;;;6.82;;
25854;SDS011;13680;49.936;11.344;2023-06-26T04:01:22;11.90;;;6.53;;
25854;SDS011;13680;49.936;11.344;2023-06-26T04:03:47;13.85;;;6.95;;
25854;SDS011;13680;49.936;11.344;2023-06-26T04:06:13;20.75;;;7.43;;
25854;SDS011;13680;49.936;11.344;2023-06-26T04:08:38;15.15;;;6.68;;
25854;SDS011;13680;49.936;11.344;2023-06-26T04:11:03;12.88;;;6.68;;
25854;SDS011;13680;49.936;11.344;2023-06-26T04:13:29;14.82;;;7.15;;
25854;SDS011;13680;49.936;11.344;2023-06-26T04:15:54;14.68;;;6.90;;
25854;SDS011;13680;49.936;11.344;2023-06-26T04:18:19;10.25;;;6.75;;
25854;SDS011;13680;49.936;11.344;2023-06-26T04:21:04;15.88;;;6.65;;
25854;SDS011;13680;49.936;11.344;2023-06-26T04:23:33;14.82;;;6.40;;
25854;SDS011;13680;49.936;11.344;2023-06-26T04:25:59;13.13;;;6.75;;
25854;SDS011;13680;49.936;11.344;2023-06-26T04:28:24;16.17;;;7.03;;
25854;SDS011;13680;49.936;11.344;2023-06-26T04:30:50;13.77;;;7.03;;
25854;SDS011;13680;49.936;11.344;2023-06-26T04:33:15;16.15;;;6.68;;
25854;SDS011;13680;49.936;11.344;2023-06-26T04:35:41;11.50;;;7.20;;
25854;SDS011;13680;49.936;11.344;2023-06-26T04:38:09;14.18;;;7.03;;
25854;SDS011;13680;49.936;11.344;2023-06-26T04:40:35;14.52;;;7.07;;
25854;SDS011;13680;49.936;11.344;2023-06-26T04:43:00;15.43;;;7.70;;
25854;SDS011;13680;49.936;11.344;2023-06-26T04:45:25;13.75;;;7.68;;
25854;SDS011;13680;49.936;11.344;2023-06-26T04:47:51;14.63;;;7.53;;
25854;SDS011;13680;49.936;11.344;2023-06-26T04:50:16;18.08;;;6.88;;
25854;SDS011;13680;49.936;11.344;2023-06-26T04:52:43;9.40;;;6.13;;
25854;SDS011;13680;49.936;11.344;2023-06-26T04:55:09;11.15;;;6.97;;
25854;SDS011;13680;49.936;11.344;2023-06-26T04:57:34;14.95;;;6.57;;
25854;SDS011;13680;49.936;11.344;2023-06-26T04:59:59;9.50;;;6.70;;
25854;SDS011;13680;49.936;11.344;2023-06-26T05:02:25;10.40;;;7.57;;
25854;SDS011;13680;49.936;11.344;2023-06-26T05:04:51;9.93;;;6.95;;
25854;SDS011;13680;49.936;11.344;2023-06-26T05:07:17;12.50;;;7.65;;
25854;SDS011;13680;49.936;11.344;2023-06-26T05:09:42;10.65;;;7.40;;
25854;SDS011;13680;49.936;11.344;2023-06-26T05:12:07;10.27;;;7.55;;
25854;SDS011;13680;49.936;11.344;2023-06-26T05:14:33;15.05;;;7.38;;
25854;SDS011;13680;49.936;11.344;2023-06-26T05:16:58;10.65;;;6.82;;
25854;SDS011;13680;49.936;11.344;2023-06-26T05:19:23;13.05;;;7.15;;
25854;SDS011;13680;49.936;11.344;2023-06-26T05:21:48;9.55;;;7.22;;
25854;SDS011;13680;49.936;11.344;2023-06-26T05:24:15;12.70;;;7.45;;
25854;SDS011;13680;49.936;11.344;2023-06-26T05:26:41;8.50;;;6.93;;
25854;SDS011;13680;49.936;11.344;2023-06-26T05:29:07;12.68;;;7.03;;
25854;SDS011;13680;49.936;11.344;2023-06-26T05:31:32;10.38;;;6.57;;
25854;SDS011;13680;49.936;11.344;2023-06-26T05:34:00;9.10;;;6.90;;
25854;SDS011;13680;49.936;11.344;2023-06-26T05:36:28;10.73;;;6.85;;
25854;SDS011;13680;49.936;11.344;2023-06-26T05:38:58;12.38;;;6.93;;
25854;SDS011;13680;49.936;11.344;2023-06-26T05:41:23;10.57;;;7.35;;
25854;SDS011;13680;49.936;11.344;2023-06-26T05:43:49;11.88;;;7.57;;
25854;SDS011;13680;49.936;11.344;2023-06-26T05:46:14;10.63;;;6.72;;
25854;SDS011;13680;49.936;11.344;2023-06-26T05:48:40;8.60;;;6.90;;
25854;SDS011;13680;49.936;11.344;2023-06-26T05:51:05;14.10;;;7.18;;
25854;SDS011;13680;49.936;11.344;2023-06-26T05:53:31;8.73;;;7.00;;
25854;SDS011;13680;49.936;11.344;2023-06-26T05:55:57;7.88;;;6.63;;
25854;SDS011;13680;49.936;11.344;2023-06-26T05:58:23;12.27;;;7.75;;
25854;SDS011;13680;49.936;11.344;2023-06-26T06:00:52;14.13;;;7.68;;
25854;SDS011;13680;49.936;11.344;2023-06-26T06:03:17;14.20;;;6.80;;
25854;SDS011;13680;49.936;11.344;2023-06-26T06:05:42;9.15;;;7.45;;
25854;SDS011;13680;49.936;11.344;2023-06-26T06:08:08;11.88;;;7.25;;
25854;SDS011;13680;49.936;11.344;2023-06-26T06:10:33;16.20;;;6.53;;
25854;SDS011;13680;49.936;11.344;2023-06-26T06:12:59;8.45;;;6.10;;
25854;SDS011;13680;49.936;11.344;2023-06-26T06:15:24;11.10;;;6.97;;
25854;SDS011;13680;49.936;11.344;2023-06-26T06:17:49;9.07;;;6.28;;
25854;SDS011;13680;49.936;11.344;2023-06-26T06:20:15;7.07;;;5.60;;
25854;SDS011;13680;49.936;11.344;2023-06-26T06:22:40;6.82;;;5.55;;
25854;SDS011;13680;49.936;11.344;2023-06-26T06:25:05;8.13;;;6.03;;
25854;SDS011;13680;49.936;11.344;2023-06-26T06:27:31;8.43;;;6.05;;
25854;SDS011;13680;49.936;11.344;2023-06-26T06:29:56;9.27;;;6.18;;
25854;SDS011;13680;49.936;11.344;2023-06-26T06:32:22;7.40;;;6.07;;
25854;SDS011;13680;49.936;11.344;2023-06-26T06:34:47;8.10;;;6.13;;
25854;SDS011;13680;49.936;11.344;2023-06-26T06:37:12;9.85;;;6.10;;
25854;SDS011;13680;49.936;11.344;2023-06-26T06:39:37;7.50;;;5.47;;
25854;SDS011;13680;49.936;11.344;2023-06-26T06:42:03;8.80;;;6.10;;
25854;SDS011;13680;49.936;11.344;2023-06-26T06:44:28;9.05;;;6.10;;
25854;SDS011;13680;49.936;11.344;2023-06-26T06:46:55;10.93;;;5.80;;
25854;SDS011;13680;49.936;11.344;2023-06-26T06:49:21;9.20;;;6.53;;
25854;SDS011;13680;49.936;11.344;2023-06-26T06:51:46;8.82;;;6.00;;
25854;SDS011;13680;49.936;11.344;2023-06-26T06:54:11;12.98;;;5.85;;
25854;SDS011;13680;49.936;11.344;2023-06-26T06:56:37;6.90;;;5.93;;
25854;SDS011;13680;49.936;11.344;2023-06-26T06:59:02;7.32;;;5.47;;
25854;SDS011;13680;49.936;11.344;2023-06-26T07:01:27;9.25;;;5.97;;
25854;SDS011;13680;49.936;11.344;2023-06-26T07:03:53;9.27;;;6.53;;
25854;SDS011;13680;49.936;11.344;2023-06-26T07:06:18;8.52;;;5.88;;
25854;SDS011;13680;49.936;11.344;2023-06-26T07:08:43;7.68;;;5.43;;
25854;SDS011;13680;49.936;11.344;2023-06-26T07:11:09;7.70;;;6.25;;
25854;SDS011;13680;49.936;11.344;2023-06-26T07:13:34;9.18;;;6.20;;
25854;SDS011;13680;49.936;11.344;2023-06-26T07:15:59;12.35;;;6.22;;
25854;SDS011;13680;49.936;11.344;2023-06-26T07:18:25;8.90;;;5.57;;
25854;SDS011;13680;49.936;11.344;2023-06-26T07:20:50;8.20;;;6.72;;
25854;SDS011;13680;49.936;11.344;2023-06-26T07:23:15;8.25;;;6.07;;
25854;SDS011;13680;49.936;11.344;2023-06-26T07:25:41;9.60;;;6.40;;
25854;SDS011;13680;49.936;11.344;2023-06-26T07:28:10;7.53;;;5.75;;
25854;SDS011;13680;49.936;11.344;2023-06-26T07:30:37;7.95;;;5.80;;
25854;SDS011;13680;49.936;11.344;2023-06-26T07:33:02;8.82;;;6.30;;
25854;SDS011;13680;49.936;11.344;2023-06-26T07:35:28;7.85;;;5.47;;
25854;SDS011;13680;49.936;11.344;2023-06-26T07:37:53;9.25;;;6.43;;
25854;SDS011;13680;49.936;11.344;2023-06-26T07:40:18;6.97;;;6.22;;
25854;SDS011;13680;49.936;11.344;2023-06-26T07:42:44;7.85;;;5.65;;
25854;SDS011;13680;49.936;11.344;2023-06-26T07:45:09;9.02;;;6.05;;
25854;SDS011;13680;49.936;11.344;2023-06-26T07:47:40;7.15;;;5.28;;
25854;SDS011;13680;49.936;11.344;2023-06-26T07:50:06;9.32;;;6.18;;
25854;SDS011;13680;49.936;11.344;2023-06-26T07:52:31;6.70;;;5.65;;
25854;SDS011;13680;49.936;11.344;2023-06-26T07:54:57;8.20;;;6.05;;
25854;SDS011;13680;49.936;11.344;2023-06-26T07:57:23;8.85;;;5.82;;
25854;SDS011;13680;49.936;11.344;2023-06-26T07:59:48;7.47;;;5.68;;
25854;SDS011;13680;49.936;11.344;2023-06-26T08:02:13;6.07;;;5.45;;
25854;SDS011;13680;49.936;11.344;2023-06-26T08:04:38;6.50;;;5.15;;
25854;SDS011;13680;49.936;11.344;2023-06-26T08:07:04;9.73;;;6.03;;
25854;SDS011;13680;49.936;11.344;2023-06-26T08:09:30;6.93;;;5.70;;
25854;SDS011;13680;49.936;11.344;2023-06-26T08:11:56;7.47;;;6.13;;
25854;SDS011;13680;49.936;11.344;2023-06-26T08:14:22;7.10;;;5.88;;
25854;SDS011;13680;49.936;11.344;2023-06-26T08:16:48;8.30;;;5.45;;
25854;SDS011;13680;49.936;11.344;2023-06-26T08:19:14;8.38;;;5.75;;
25854;SDS011;13680;49.936;11.344;2023-06-26T08:21:41;9.00;;;5.55;;
25854;SDS011;13680;49.936;11.344;2023-06-26T08:24:06;9.60;;;5.80;;
25854;SDS011;13680;49.936;11.344;2023-06-26T08:26:32;6.70;;;5.65;;
25854;SDS011;13680;49.936;11.344;2023-06-26T08:28:57;11.68;;;6.18;;
25854;SDS011;13680;49.936;11.344;2023-06-26T08:31:23;7.68;;;6.00;;
25854;SDS011;13680;49.936;11.344;2023-06-26T08:33:48;6.20;;;5.45;;
25854;SDS011;13680;49.936;11.344;2023-06-26T08:36:14;10.35;;;5.70;;
25854;SDS011;13680;49.936;11.344;2023-06-26T08:38:39;11.15;;;6.25;;
25854;SDS011;13680;49.936;11.344;2023-06-26T08:41:05;6.32;;;5.38;;
25854;SDS011;13680;49.936;11.344;2023-06-26T08:53:55;11.70;;;5.78;;
25854;SDS011;13680;49.936;11.344;2023-06-26T08:56:22;9.50;;;5.63;;
25854;SDS011;13680;49.936;11.344;2023-06-26T08:58:52;7.53;;;5.38;;
25854;SDS011;13680;49.936;11.344;2023-06-26T09:01:18;10.02;;;5.82;;
25854;SDS011;13680;49.936;11.344;2023-06-26T09:03:44;8.77;;;5.95;;
25854;SDS011;13680;49.936;11.344;2023-06-26T09:06:09;7.35;;;5.53;;
25854;SDS011;13680;49.936;11.344;2023-06-26T09:08:35;7.45;;;6.07;;
25854;SDS011;13680;49.936;11.344;2023-06-26T09:11:01;8.40;;;5.82;;
25854;SDS011;13680;49.936;11.344;2023-06-26T09:13:28;6.63;;;5.93;;
25854;SDS011;13680;49.936;11.344;2023-06-26T09:15:54;8.65;;;5.88;;
25854;SDS011;13680;49.936;11.344;2023-06-26T09:18:20;5.93;;;5.25;;
25854;SDS011;13680;49.936;11.344;2023-06-26T09:20:46;6.72;;;5.47;;
25854;SDS011;13680;49.936;11.344;2023-06-26T09:23:11;6.03;;;5.32;;
25854;SDS011;13680;49.936;11.344;2023-06-26T09:25:38;10.18;;;5.72;;
25854;SDS011;13680;49.936;11.344;2023-06-26T09:28:04;7.28;;;5.30;;
25854;SDS011;13680;49.936;11.344;2023-06-26T09:30:31;6.57;;;5.18;;
25854;SDS011;13680;49.936;11.344;2023-06-26T09:32:57;7.63;;;5.38;;
25854;SDS011;13680;49.936;11.344;2023-06-26T09:35:23;6.10;;;5.05;;
25854;SDS011;13680;49.936;11.344;2023-06-26T09:37:49;6.72;;;5.65;;
25854;SDS011;13680;49.936;11.344;2023-06-26T09:40:15;6.25;;;5.07;;
25854;SDS011;13680;49.936;11.344;2023-06-26T09:42:42;7.07;;;5.00;;
25854;SDS011;13680;49.936;11.344;2023-06-26T09:45:12;7.30;;;5.10;;
25854;SDS011;13680;49.936;11.344;2023-06-26T09:47:44;8.18;;;5.63;;
25854;SDS011;13680;49.936;11.344;2023-06-26T09:50:20;8.25;;;5.20;;
25854;SDS011;13680;49.936;11.344;2023-06-26T09:52:46;6.57;;;5.70;;
25854;SDS011;13680;49.936;11.344;2023-06-26T09:55:12;6.10;;;5.50;;
25854;SDS011;13680;49.936;11.344;2023-06-26T09:57:38;7.07;;;5.28;;
25854;SDS011;13680;49.936;11.344;2023-06-26T10:00:04;6.53;;;5.70;;
25854;SDS011;13680;49.936;11.344;2023-06-26T10:02:30;6.50;;;5.50;;
25854;SDS011;13680;49.936;11.344;2023-06-26T10:04:56;7.30;;;5.65;;
25854;SDS011;13680;49.936;11.344;2023-06-26T10:07:21;7.35;;;5.57;;
25854;SDS011;13680;49.936;11.344;2023-06-26T10:09:47;10.30;;;5.60;;
25854;SDS011;13680;49.936;11.344;2023-06-26T10:12:26;7.15;;;5.55;;
25854;SDS011;13680;49.936;11.344;2023-06-26T10:14:53;6.15;;;5.28;;
25854;SDS011;13680;49.936;11.344;2023-06-26T10:17:21;6.40;;;5.70;;
25854;SDS011;13680;49.936;11.344;2023-06-26T10:19:47;6.72;;;5.82;;
25854;SDS011;13680;49.936;11.344;2023-06-26T10:22:16;6.78;;;5.75;;
25854;SDS011;13680;49.936;11.344;2023-06-26T10:24:42;7.45;;;5.68;;
25854;SDS011;13680;49.936;11.344;2023-06-26T10:27:13;14.65;;;5.93;;
25854;SDS011;13680;49.936;11.344;2023-06-26T10:29:42;7.20;;;5.32;;
25854;SDS011;13680;49.936;11.344;2023-06-26T10:32:14;7.10;;;5.43;;
25854;SDS011;13680;49.936;11.344;2023-06-26T10:34:41;6.72;;;4.93;;
25854;SDS011;13680;49.936;11.344;2023-06-26T10:37:08;7.78;;;5.20;;
25854;SDS011;13680;49.936;11.344;2023-06-26T10:39:46;7.40;;;5.43;;
25854;SDS011;13680;49.936;11.344;2023-06-26T10:42:14;7.65;;;5.35;;
25854;SDS011;13680;49.936;11.344;2023-06-26T10:44:43;6.40;;;5.32;;
25854;SDS011;13680;49.936;11.344;2023-06-26T10:47:10;6.43;;;5.53;;
25854;SDS011;13680;49.936;11.344;2023-06-26T10:49:37;7.15;;;5.43;;
25854;SDS011;13680;49.936;11.344;2023-06-26T10:52:07;5.45;;;4.93;;
25854;SDS011;13680;49.936;11.344;2023-06-26T10:54:33;6.40;;;5.50;;
25854;SDS011;13680;49.936;11.344;2023-06-26T10:56:58;6.57;;;5.53;;
25854;SDS011;13680;49.936;11.344;2023-06-26T10:59:27;9.93;;;6.10;;
25854;SDS011;13680;49.936;11.344;2023-06-26T11:01:55;7.40;;;5.85;;
25854;SDS011;13680;49.936;11.344;2023-06-26T11:04:35;7.65;;;6.00;;
25854;SDS011;13680;49.936;11.344;2023-06-26T11:07:15;9.68;;;5.82;;
25854;SDS011;13680;49.936;11.344;2023-06-26T11:12:39;11.93;;;6.10;;
25854;SDS011;13680;49.936;11.344;2023-06-26T11:15:10;11.07;;;6.53;;
25854;SDS011;13680;49.936;11.344;2023-06-26T11:17:38;8.10;;;5.90;;
25854;SDS011;13680;49.936;11.344;2023-06-26T11:20:07;7.53;;;6.40;;
25854;SDS011;13680;49.936;11.344;2023-06-26T11:22:35;10.38;;;6.60;;
25854;SDS011;13680;49.936;11.344;2023-06-26T11:25:05;10.23;;;6.65;;
25854;SDS011;13680;49.936;11.344;2023-06-26T11:30:06;6.80;;;6.07;;
25854;SDS011;13680;49.936;11.344;2023-06-26T11:32:36;6.80;;;5.85;;
25854;SDS011;13680;49.936;11.344;2023-06-26T11:35:03;8.40;;;5.70;;
25854;SDS011;13680;49.936;11.344;2023-06-26T11:37:30;8.63;;;6.43;;
25854;SDS011;13680;49.936;11.344;2023-06-26T11:39:56;6.88;;;5.90;;
25854;SDS011;13680;49.936;11.344;2023-06-26T11:42:21;7.13;;;5.93;;
25854;SDS011;13680;49.936;11.344;2023-06-26T11:44:49;6.53;;;5.75;;
25854;SDS011;13680;49.936;11.344;2023-06-26T11:47:15;7.95;;;6.10;;
25854;SDS011;13680;49.936;11.344;2023-06-26T11:49:44;8.90;;;6.40;;
25854;SDS011;13680;49.936;11.344;2023-06-26T11:52:10;10.50;;;7.43;;
25854;SDS011;13680;49.936;11.344;2023-06-26T11:54:35;8.98;;;6.75;;
25854;SDS011;13680;49.936;11.344;2023-06-26T11:57:00;15.73;;;7.50;;
25854;SDS011;13680;49.936;11.344;2023-06-26T11:59:36;6.68;;;5.75;;
25854;SDS011;13680;49.936;11.344;2023-06-26T12:04:38;10.02;;;6.22;;
25854;SDS011;13680;49.936;11.344;2023-06-26T12:07:06;7.70;;;6.60;;
25854;SDS011;13680;49.936;11.344;2023-06-26T12:09:34;8.32;;;6.10;;
25854;SDS011;13680;49.936;11.344;2023-06-26T12:12:03;7.30;;;6.30;;
25854;SDS011;13680;49.936;11.344;2023-06-26T12:14:29;6.30;;;5.38;;
25854;SDS011;13680;49.936;11.344;2023-06-26T12:16:56;6.90;;;6.20;;
25854;SDS011;13680;49.936;11.344;2023-06-26T12:19:29;6.57;;;5.40;;
25854;SDS011;13680;49.936;11.344;2023-06-26T12:21:54;9.82;;;5.53;;
25854;SDS011;13680;49.936;11.344;2023-06-26T12:24:22;6.55;;;5.65;;
25854;SDS011;13680;49.936;11.344;2023-06-26T12:26:52;7.07;;;4.65;;
25854;SDS011;13680;49.936;11.344;2023-06-26T12:29:20;5.70;;;5.00;;
25854;SDS011;13680;49.936;11.344;2023-06-26T12:31:51;5.57;;;4.70;;
25854;SDS011;13680;49.936;11.344;2023-06-26T12:34:18;7.40;;;5.10;;
25854;SDS011;13680;49.936;11.344;2023-06-26T12:36:47;5.43;;;4.93;;
25854;SDS011;13680;49.936;11.344;2023-06-26T12:39:17;7.43;;;4.57;;
25854;SDS011;13680;49.936;11.344;2023-06-26T12:44:17;6.70;;;4.63;;
25854;SDS011;13680;49.936;11.344;2023-06-26T12:46:45;11.88;;;4.80;;
25854;SDS011;13680;49.936;11.344;2023-06-26T12:49:12;11.52;;;4.45;;
25854;SDS011;13680;49.936;11.344;2023-06-26T12:51:37;8.48;;;4.78;;
25854;SDS011;13680;49.936;11.344;2023-06-26T12:54:03;5.70;;;4.63;;
25854;SDS011;13680;49.936;11.344;2023-06-26T12:56:28;4.80;;;4.30;;
25854;SDS011;13680;49.936;11.344;2023-06-26T12:58:53;6.88;;;3.92;;
25854;SDS011;13680;49.936;11.344;2023-06-26T13:01:19;4.45;;;3.95;;
25854;SDS011;13680;49.936;11.344;2023-06-26T13:03:45;10.05;;;4.68;;
25854;SDS011;13680;49.936;11.344;2023-06-26T13:06:10;5.07;;;4.18;;
25854;SDS011;13680;49.936;11.344;2023-06-26T13:08:35;5.88;;;4.63;;
25854;SDS011;13680;49.936;11.344;2023-06-26T13:11:02;6.72;;;5.07;;
25854;SDS011;13680;49.936;11.344;2023-06-26T13:13:27;7.47;;;5.10;;
25854;SDS011;13680;49.936;11.344;2023-06-26T13:15:52;6.22;;;4.85;;
25854;SDS011;13680;49.936;11.344;2023-06-26T13:18:18;8.95;;;4.75;;
25854;SDS011;13680;49.936;11.344;2023-06-26T13:20:43;5.88;;;4.68;;
25854;SDS011;13680;49.936;11.344;2023-06-26T13:23:09;6.90;;;4.80;;
25854;SDS011;13680;49.936;11.344;2023-06-26T13:25:34;6.18;;;4.28;;
25854;SDS011;13680;49.936;11.344;2023-06-26T13:27:59;6.30;;;4.63;;
25854;SDS011;13680;49.936;11.344;2023-06-26T13:30:25;5.82;;;4.70;;
25854;SDS011;13680;49.936;11.344;2023-06-26T13:32:50;7.60;;;4.60;;
25854;SDS011;13680;49.936;11.344;2023-06-26T13:35:15;6.25;;;4.47;;
25854;SDS011;13680;49.936;11.344;2023-06-26T13:37:41;5.10;;;4.28;;
25854;SDS011;13680;49.936;11.344;2023-06-26T13:40:08;12.70;;;4.88;;
25854;SDS011;13680;49.936;11.344;2023-06-26T13:42:34;7.47;;;4.75;;
25854;SDS011;13680;49.936;11.344;2023-06-26T13:45:01;5.28;;;4.78;;
25854;SDS011;13680;49.936;11.344;2023-06-26T13:47:27;8.30;;;4.80;;
25854;SDS011;13680;49.936;11.344;2023-06-26T13:49:52;8.68;;;5.20;;
25854;SDS011;13680;49.936;11.344;2023-06-26T13:52:17;5.25;;;4.57;;
25854;SDS011;13680;49.936;11.344;2023-06-26T13:54:43;7.45;;;5.25;;
25854;SDS011;13680;49.936;11.344;2023-06-26T13:57:08;11.20;;;5.15;;
25854;SDS011;13680;49.936;11.344;2023-06-26T13:59:33;7.28;;;4.75;;
25854;SDS011;13680;49.936;11.344;2023-06-26T14:02:01;6.00;;;4.90;;
25854;SDS011;13680;49.936;11.344;2023-06-26T14:04:27;6.15;;;4.97;;
25854;SDS011;13680;49.936;11.344;2023-06-26T14:06:52;5.55;;;5.00;;
25854;SDS011;13680;49.936;11.344;2023-06-26T14:09:17;6.95;;;4.68;;
25854;SDS011;13680;49.936;11.344;2023-06-26T14:11:43;7.50;;;4.88;;
25854;SDS011;13680;49.936;11.344;2023-06-26T14:14:09;8.07;;;4.90;;
25854;SDS011;13680;49.936;11.344;2023-06-26T14:16:34;6.63;;;4.60;;
25854;SDS011;13680;49.936;11.344;2023-06-26T14:19:00;6.30;;;5.30;;
25854;SDS011;13680;49.936;11.344;2023-06-26T14:21:26;6.30;;;5.50;;
25854;SDS011;13680;49.936;11.344;2023-06-26T14:23:53;9.90;;;6.00;;
25854;SDS011;13680;49.936;11.344;2023-06-26T14:26:18;13.70;;;5.25;;
25854;SDS011;13680;49.936;11.344;2023-06-26T14:28:44;9.57;;;5.70;;
25854;SDS011;13680;49.936;11.344;2023-06-26T14:31:10;6.68;;;5.25;;
25854;SDS011;13680;49.936;11.344;2023-06-26T14:33:35;9.35;;;5.30;;
25854;SDS011;13680;49.936;11.344;2023-06-26T14:36:01;8.80;;;5.72;;
25854;SDS011;13680;49.936;11.344;2023-06-26T14:38:26;10.63;;;6.47;;
25854;SDS011;13680;49.936;11.344;2023-06-26T14:40:51;10.47;;;5.37;;
25854;SDS011;13680;49.936;11.344;2023-06-26T14:43:17;6.95;;;5.13;;
25854;SDS011;13680;49.936;11.344;2023-06-26T14:45:42;8.90;;;5.97;;
25854;SDS011;13680;49.936;11.344;2023-06-26T14:48:07;7.13;;;5.73;;
25854;SDS011;13680;49.936;11.344;2023-06-26T14:50:33;8.00;;;5.88;;
25854;SDS011;13680;49.936;11.344;2023-06-26T14:52:58;9.27;;;5.50;;